Time;durP1;ratioP1;P1;durP2;ratioP2;P2;SDS_P1;SDS_P2;PMS_P1;PMS_P2;Temp;Humidity;BMP_temperature;BMP_pressure;BME280_temperature;BME280_humidity;BME280_pressure;Samples;Min_cycle;Max_cycle;Signal;HPM_P1;HPM_P2
2022/07/30 00:02:02;;;;;;;7.40;4.50;;;22.20;85.60;;;;;;5055163;28;20048;-71
2022/07/30 00:04:28;;;;;;;10.43;4.68;;;22.20;85.60;;;;;;5056073;28;20013;-70
2022/07/30 00:06:54;;;;;;;6.38;4.70;;;22.20;85.80;;;;;;5056387;28;20071;-71
2022/07/30 00:09:19;;;;;;;9.52;4.90;;;22.10;85.70;;;;;;5056191;28;20417;-71
2022/07/30 00:11:45;;;;;;;6.97;4.82;;;22.20;85.60;;;;;;5054315;28;20041;-71
2022/07/30 00:14:10;;;;;;;8.73;4.85;;;22.10;85.60;;;;;;5056103;28;20025;-71
2022/07/30 00:16:36;;;;;;;9.18;4.85;;;22.20;85.60;;;;;;5056229;28;20051;-71
2022/07/30 00:19:02;;;;;;;11.18;4.45;;;22.00;85.70;;;;;;5055662;28;20021;-71
2022/07/30 00:21:28;;;;;;;7.95;4.68;;;22.10;85.60;;;;;;5054747;28;20505;-69
2022/07/30 00:23:53;;;;;;;8.02;5.90;;;22.00;85.70;;;;;;5036117;28;20014;-71
2022/07/30 00:26:19;;;;;;;11.18;5.80;;;22.00;85.80;;;;;;5036086;28;20467;-71
2022/07/30 00:28:44;;;;;;;7.88;4.90;;;22.00;85.80;;;;;;5038011;28;20029;-71
2022/07/30 00:31:10;;;;;;;8.48;5.35;;;22.00;85.80;;;;;;5055190;28;20552;-71
2022/07/30 00:33:35;;;;;;;14.23;7.22;;;21.90;86.10;;;;;;5055477;28;20021;-70
2022/07/30 00:36:01;;;;;;;10.10;9.10;;;21.90;86.10;;;;;;5042164;28;20064;-70
2022/07/30 00:38:27;;;;;;;12.02;8.48;;;21.80;86.00;;;;;;5034666;28;20120;-71
2022/07/30 00:40:52;;;;;;;12.27;11.05;;;21.90;86.00;;;;;;5034769;28;20030;-71
2022/07/30 00:43:18;;;;;;;13.40;10.73;;;21.80;86.00;;;;;;5034489;28;20068;-71
2022/07/30 00:45:44;;;;;;;9.63;8.00;;;21.80;86.40;;;;;;5035856;28;20510;-71
2022/07/30 00:48:11;;;;;;;8.65;7.85;;;21.80;86.40;;;;;;5034765;28;20032;-68
2022/07/30 00:50:37;;;;;;;12.20;9.77;;;21.70;86.70;;;;;;5054354;28;20049;-70
2022/07/30 00:53:03;;;;;;;9.95;8.02;;;21.70;86.60;;;;;;5055711;28;20032;-71
2022/07/30 00:55:29;;;;;;;11.18;9.45;;;21.80;86.30;;;;;;5055509;28;20060;-70
2022/07/30 00:57:55;;;;;;;13.07;9.63;;;21.70;86.60;;;;;;5055367;28;20064;-71
2022/07/30 01:00:20;;;;;;;9.68;8.70;;;21.70;86.50;;;;;;5054099;28;20107;-70
2022/07/30 01:02:46;;;;;;;9.40;8.55;;;21.70;86.50;;;;;;5055051;28;20045;-62
2022/07/30 01:05:12;;;;;;;11.18;9.15;;;21.70;86.70;;;;;;5055376;28;20024;-64
2022/07/30 01:07:38;;;;;;;13.63;7.93;;;21.70;87.00;;;;;;5055320;28;20013;-63
2022/07/30 01:10:05;;;;;;;13.23;10.02;;;21.70;87.10;;;;;;5041087;28;20103;-65
2022/07/30 01:12:32;;;;;;;11.35;10.00;;;21.60;87.10;;;;;;5033973;28;20064;-62
2022/07/30 01:15:00;;;;;;;9.05;7.28;;;21.60;87.20;;;;;;5035246;28;20025;-62
2022/07/30 01:17:26;;;;;;;11.88;8.32;;;21.60;87.20;;;;;;5035083;28;20026;-63
2022/07/30 01:19:57;;;;;;;16.40;10.32;;;21.60;87.40;;;;;;5034580;28;20527;-62
2022/07/30 01:22:28;;;;;;;11.37;8.93;;;21.60;87.40;;;;;;5041030;28;20417;-62
2022/07/30 01:25:03;;;;;;;9.77;8.43;;;21.50;87.40;;;;;;5055030;28;20032;-63
2022/07/30 01:27:35;;;;;;;12.20;10.52;;;21.60;87.40;;;;;;5054653;28;20079;-62
2022/07/30 01:30:05;;;;;;;9.85;8.52;;;21.50;87.30;;;;;;5052510;28;20041;-62
2022/07/30 01:32:33;;;;;;;10.05;9.20;;;21.50;87.40;;;;;;5054493;28;20047;-68
2022/07/30 01:35:01;;;;;;;11.73;9.32;;;21.50;87.40;;;;;;5054863;28;20025;-65
2022/07/30 01:37:27;;;;;;;11.30;9.45;;;21.40;87.50;;;;;;5054767;28;20033;-68
2022/07/30 01:39:54;;;;;;;12.05;11.00;;;21.40;87.60;;;;;;5053449;28;20078;-67
2022/07/30 01:42:23;;;;;;;13.52;10.95;;;21.40;87.90;;;;;;5054619;28;20021;-68
2022/07/30 01:44:49;;;;;;;10.38;8.60;;;21.40;88.00;;;;;;5045536;28;20425;-65
2022/07/30 01:47:17;;;;;;;11.40;9.57;;;21.30;87.90;;;;;;5054432;28;20017;-62
2022/07/30 01:49:46;;;;;;;11.50;9.68;;;21.40;88.20;;;;;;5051122;28;20033;-69
2022/07/30 01:52:13;;;;;;;12.52;11.27;;;21.30;88.40;;;;;;5034762;28;20157;-69
2022/07/30 01:54:40;;;;;;;10.35;8.35;;;21.30;88.60;;;;;;5034260;28;20023;-69
2022/07/30 01:57:07;;;;;;;11.20;10.20;;;21.30;88.40;;;;;;5034410;28;20075;-69
2022/07/30 01:59:34;;;;;;;12.32;9.93;;;21.40;88.60;;;;;;5039732;28;20092;-64
2022/07/30 02:02:00;;;;;;;11.68;10.52;;;21.30;88.60;;;;;;5053394;28;20527;-70
2022/07/30 02:04:26;;;;;;;12.88;11.63;;;21.30;88.60;;;;;;5054012;28;20021;-63
2022/07/30 02:07:30;;;;;;;12.40;9.85;;;21.30;88.70;;;;;;5054162;28;20486;-65
2022/07/30 02:10:16;;;;;;;11.43;9.77;;;21.30;88.80;;;;;;5051972;28;20048;-63
2022/07/30 02:12:47;;;;;;;12.25;9.30;;;21.20;88.70;;;;;;5052755;28;20449;-66
2022/07/30 02:15:25;;;;;;;11.50;10.40;;;21.20;88.60;;;;;;5053695;28;20056;-62
2022/07/30 02:17:53;;;;;;;13.20;9.57;;;21.20;88.40;;;;;;5053844;28;20467;-67
2022/07/30 02:20:23;;;;;;;10.45;9.48;;;21.20;88.50;;;;;;5052627;28;20074;-65
2022/07/30 02:22:51;;;;;;;11.20;10.15;;;21.10;88.40;;;;;;5053832;28;20045;-63
2022/07/30 02:25:19;;;;;;;11.75;10.65;;;21.10;88.30;;;;;;5053804;28;20024;-68
2022/07/30 02:27:51;;;;;;;13.80;9.93;;;21.10;88.40;;;;;;5053693;28;20029;-69
2022/07/30 02:30:17;;;;;;;11.95;10.18;;;21.10;88.50;;;;;;5051310;28;20037;-68
2022/07/30 02:32:43;;;;;;;11.18;10.00;;;21.00;88.80;;;;;;5053541;28;20017;-70
2022/07/30 02:35:21;;;;;;;12.15;10.45;;;20.90;89.00;;;;;;5053660;28;20071;-67
2022/07/30 02:37:51;;;;;;;10.68;9.68;;;20.90;89.10;;;;;;5050651;28;20040;-68
2022/07/30 02:40:18;;;;;;;13.30;11.85;;;21.00;89.00;;;;;;5048652;28;20068;-65
2022/07/30 02:42:48;;;;;;;13.63;11.20;;;21.00;88.90;;;;;;5049254;28;20029;-70
2022/07/30 02:45:16;;;;;;;12.25;11.30;;;21.00;88.90;;;;;;5053075;28;20052;-70
2022/07/30 02:47:43;;;;;;;12.98;9.68;;;20.90;89.00;;;;;;5048460;28;20029;-67
2022/07/30 02:50:10;;;;;;;11.20;9.75;;;20.90;88.90;;;;;;5042921;28;20083;-70
2022/07/30 02:52:38;;;;;;;14.05;10.55;;;20.90;88.80;;;;;;5047111;28;20021;-70
2022/07/30 02:55:06;;;;;;;12.52;11.43;;;20.90;88.70;;;;;;5053485;28;20017;-64
2022/07/30 02:57:33;;;;;;;10.82;9.73;;;20.90;88.80;;;;;;5051755;28;20087;-69
2022/07/30 02:59:59;;;;;;;11.48;10.13;;;20.80;88.80;;;;;;5052821;28;20021;-70
2022/07/30 03:02:25;;;;;;;13.18;8.90;;;20.80;88.80;;;;;;5053155;28;20025;-63
2022/07/30 03:04:52;;;;;;;13.63;10.35;;;20.80;88.80;;;;;;5053270;28;20048;-63
2022/07/30 03:07:19;;;;;;;10.68;9.75;;;20.80;89.00;;;;;;5050428;28;20017;-63
2022/07/30 03:09:45;;;;;;;12.77;11.55;;;20.70;89.20;;;;;;5033015;28;20017;-62
2022/07/30 03:12:13;;;;;;;12.75;11.18;;;20.70;89.40;;;;;;5043316;28;20079;-63
2022/07/30 03:14:39;;;;;;;12.07;11.02;;;20.70;89.60;;;;;;5052809;28;20483;-62
2022/07/30 03:17:06;;;;;;;12.98;11.63;;;20.70;89.80;;;;;;5052766;28;20053;-63
2022/07/30 03:19:35;;;;;;;13.82;12.50;;;20.70;89.80;;;;;;5050952;28;20044;-62
2022/07/30 03:22:03;;;;;;;14.75;13.20;;;20.70;89.80;;;;;;5052862;28;20027;-63
2022/07/30 03:24:31;;;;;;;14.68;13.15;;;20.70;90.00;;;;;;5052865;28;20025;-61
2022/07/30 03:26:59;;;;;;;15.50;14.00;;;20.70;90.00;;;;;;5051389;28;20136;-62
2022/07/30 03:29:26;;;;;;;13.10;11.48;;;20.70;90.00;;;;;;5050963;28;20074;-62
2022/07/30 03:31:52;;;;;;;14.68;13.00;;;20.70;90.00;;;;;;5052898;28;20049;-62
2022/07/30 03:34:19;;;;;;;13.27;11.98;;;20.60;90.00;;;;;;5052881;28;20021;-61
2022/07/30 03:36:45;;;;;;;15.23;13.13;;;20.60;90.00;;;;;;5045777;28;20030;-63
2022/07/30 03:39:11;;;;;;;14.57;12.50;;;20.60;90.00;;;;;;5032711;28;20422;-62
2022/07/30 03:41:38;;;;;;;13.57;12.50;;;20.60;90.10;;;;;;5039741;28;20033;-62
2022/07/30 03:44:04;;;;;;;13.93;12.52;;;20.50;90.00;;;;;;5052482;28;20104;-61
2022/07/30 03:46:31;;;;;;;13.18;11.55;;;20.50;90.00;;;;;;5032150;28;20021;-68
2022/07/30 03:48:59;;;;;;;13.65;12.30;;;20.50;90.10;;;;;;5031466;28;20034;-70
2022/07/30 03:51:25;;;;;;;12.90;11.70;;;20.50;90.10;;;;;;5032674;28;20100;-62
2022/07/30 03:53:51;;;;;;;13.68;12.13;;;20.50;90.10;;;;;;5032693;28;20471;-70
2022/07/30 03:56:17;;;;;;;14.52;12.75;;;20.50;90.20;;;;;;5042956;28;20045;-67
2022/07/30 03:58:42;;;;;;;13.20;11.90;;;20.50;90.20;;;;;;5044771;28;20021;-62
2022/07/30 04:01:08;;;;;;;14.73;13.23;;;20.50;90.30;;;;;;5032824;28;20109;-67
2022/07/30 04:03:34;;;;;;;15.93;14.45;;;20.40;90.30;;;;;;5032710;28;20018;-62
2022/07/30 04:06:00;;;;;;;15.13;13.52;;;20.40;90.40;;;;;;5040883;28;20451;-70
2022/07/30 04:08:27;;;;;;;15.63;14.00;;;20.40;90.50;;;;;;5052544;28;20029;-62
2022/07/30 04:10:52;;;;;;;16.98;15.55;;;20.40;90.50;;;;;;5052190;28;20474;-62
2022/07/30 04:13:19;;;;;;;17.35;14.05;;;20.40;90.40;;;;;;5051185;28;20021;-67
2022/07/30 04:15:48;;;;;;;18.00;14.50;;;20.40;90.50;;;;;;5051725;28;20482;-67
2022/07/30 04:18:15;;;;;;;15.38;12.98;;;20.40;90.50;;;;;;5052768;28;20096;-64
2022/07/30 04:20:44;;;;;;;16.48;14.88;;;20.40;90.60;;;;;;5052473;28;20031;-70
2022/07/30 04:23:11;;;;;;;16.30;13.68;;;20.30;90.60;;;;;;5051985;28;20021;-70
2022/07/30 04:25:38;;;;;;;15.35;13.80;;;20.30;90.70;;;;;;5053482;28;20513;-65
2022/07/30 04:28:05;;;;;;;18.67;14.98;;;20.30;90.70;;;;;;5055743;28;20053;-70
2022/07/30 04:30:34;;;;;;;17.20;13.50;;;20.30;90.80;;;;;;5055993;28;20041;-70
2022/07/30 04:33:02;;;;;;;16.42;13.60;;;20.30;90.80;;;;;;5055649;28;20020;-65
2022/07/30 04:35:31;;;;;;;14.98;13.65;;;20.30;90.80;;;;;;5054446;28;20033;-66
2022/07/30 04:37:57;;;;;;;15.88;14.50;;;20.30;90.80;;;;;;5055761;28;20112;-71
2022/07/30 04:40:23;;;;;;;19.50;12.70;;;20.30;90.90;;;;;;5055655;28;20108;-68
2022/07/30 04:42:49;;;;;;;15.10;13.75;;;20.30;90.90;;;;;;5054520;28;20045;-70
2022/07/30 04:45:18;;;;;;;14.45;13.15;;;20.30;90.90;;;;;;5042735;28;20105;-71
2022/07/30 04:47:45;;;;;;;16.08;14.20;;;20.30;91.00;;;;;;5034489;28;20031;-66
2022/07/30 04:50:12;;;;;;;15.82;14.35;;;20.20;91.00;;;;;;5036435;28;20030;-68
2022/07/30 04:52:38;;;;;;;15.70;13.27;;;20.20;91.10;;;;;;5039268;28;20462;-62
2022/07/30 04:55:06;;;;;;;16.10;14.57;;;20.30;91.10;;;;;;5039304;28;20033;-70
2022/07/30 04:57:35;;;;;;;15.57;14.02;;;20.30;91.10;;;;;;5048748;28;20149;-69
2022/07/30 05:00:01;;;;;;;17.73;14.55;;;20.30;91.10;;;;;;5054054;28;20021;-69
2022/07/30 05:02:30;;;;;;;15.13;13.82;;;20.30;91.00;;;;;;5036143;28;20088;-70
2022/07/30 05:04:57;;;;;;;16.33;13.63;;;20.30;91.00;;;;;;5035021;28;20064;-69
2022/07/30 05:07:24;;;;;;;15.65;14.02;;;20.40;91.00;;;;;;5033996;28;20014;-67
2022/07/30 05:09:50;;;;;;;17.05;15.10;;;20.40;91.10;;;;;;5034498;28;20104;-70
2022/07/30 05:12:15;;;;;;;16.33;14.60;;;20.40;91.10;;;;;;5053841;28;20116;-71
2022/07/30 05:14:41;;;;;;;15.77;13.90;;;20.30;91.30;;;;;;5054916;28;20025;-70
2022/07/30 05:17:06;;;;;;;15.00;13.50;;;20.30;91.30;;;;;;5054793;28;20044;-63
2022/07/30 05:19:32;;;;;;;16.00;14.40;;;20.30;91.30;;;;;;5054794;28;20459;-66
2022/07/30 05:21:58;;;;;;;16.42;14.98;;;20.30;91.30;;;;;;5046863;28;20029;-67
2022/07/30 05:24:24;;;;;;;16.60;14.93;;;20.40;91.30;;;;;;5047730;28;20364;-66
2022/07/30 05:26:49;;;;;;;12.65;11.43;;;20.40;91.30;;;;;;5043998;28;20028;-70
2022/07/30 05:29:15;;;;;;;13.80;12.27;;;20.50;91.20;;;;;;5046040;28;20096;-70
2022/07/30 05:31:41;;;;;;;14.40;12.88;;;20.50;91.20;;;;;;5040575;28;20045;-66
2022/07/30 05:34:07;;;;;;;13.45;12.25;;;20.50;91.20;;;;;;5042608;28;20029;-73
2022/07/30 05:36:32;;;;;;;16.63;14.77;;;20.50;91.20;;;;;;5044120;28;20460;-64
2022/07/30 05:38:59;;;;;;;14.60;13.18;;;20.50;91.20;;;;;;5039981;28;20029;-66
2022/07/30 05:41:26;;;;;;;15.65;14.25;;;20.50;91.30;;;;;;5039232;28;20037;-70
2022/07/30 05:43:52;;;;;;;17.20;15.45;;;20.50;91.30;;;;;;5038872;28;20025;-72
2022/07/30 05:46:17;;;;;;;17.45;14.13;;;20.50;91.40;;;;;;5039787;28;20425;-64
2022/07/30 05:48:43;;;;;;;14.63;13.18;;;20.50;91.40;;;;;;5049903;28;20029;-72
2022/07/30 05:51:08;;;;;;;15.48;13.70;;;20.50;91.40;;;;;;5052770;28;20025;-62
2022/07/30 05:53:34;;;;;;;16.02;14.48;;;20.50;91.70;;;;;;5041554;28;20017;-62
2022/07/30 05:56:00;;;;;;;17.15;15.45;;;20.50;91.70;;;;;;5043246;28;20029;-62
2022/07/30 05:58:25;;;;;;;16.35;14.50;;;20.50;92.00;;;;;;5040778;28;20029;-62
2022/07/30 06:00:51;;;;;;;17.10;14.23;;;20.60;92.60;;;;;;5036498;28;20049;-62
2022/07/30 06:03:16;;;;;;;15.88;14.27;;;20.70;92.70;;;;;;5042592;28;20033;-65
2022/07/30 06:05:42;;;;;;;16.55;14.30;;;20.80;92.80;;;;;;5033999;28;20029;-69
2022/07/30 06:08:07;;;;;;;18.55;14.70;;;20.80;93.00;;;;;;5036005;28;20029;-71
2022/07/30 06:10:33;;;;;;;17.45;14.27;;;20.90;93.00;;;;;;5033532;28;20585;-63
2022/07/30 06:12:59;;;;;;;15.57;13.90;;;21.00;93.00;;;;;;5035482;28;20029;-71
2022/07/30 06:15:25;;;;;;;13.77;11.68;;;21.00;92.80;;;;;;5039686;28;20422;-61
2022/07/30 06:17:50;;;;;;;13.30;11.50;;;21.10;92.70;;;;;;5034364;28;20109;-62
2022/07/30 06:20:17;;;;;;;14.00;12.63;;;21.20;92.70;;;;;;5045852;28;20486;-62
2022/07/30 06:22:43;;;;;;;14.35;12.93;;;21.20;92.60;;;;;;5034408;28;20025;-62
2022/07/30 06:25:09;;;;;;;14.65;13.25;;;21.30;92.80;;;;;;5033326;28;20033;-64
2022/07/30 06:27:35;;;;;;;13.80;12.27;;;21.30;92.30;;;;;;5034234;28;20105;-70
2022/07/30 06:30:04;;;;;;;9.90;8.98;;;21.30;92.10;;;;;;5039759;28;20033;-71
2022/07/30 06:32:30;;;;;;;7.78;7.07;;;21.40;91.50;;;;;;5045825;28;20049;-62
2022/07/30 06:34:55;;;;;;;11.35;10.25;;;21.40;91.10;;;;;;5069598;28;20067;-62
2022/07/30 06:37:21;;;;;;;11.18;9.75;;;21.50;90.80;;;;;;5056125;28;20039;-62
2022/07/30 06:39:47;;;;;;;11.77;10.50;;;21.50;90.70;;;;;;5065788;28;20494;-65
2022/07/30 06:42:13;;;;;;;11.18;10.07;;;21.60;90.50;;;;;;5057208;28;20029;-65
2022/07/30 06:44:39;;;;;;;11.20;10.30;;;21.70;90.50;;;;;;5052208;28;20038;-68
2022/07/30 06:47:05;;;;;;;10.90;9.90;;;21.70;90.40;;;;;;5051323;28;20025;-64
2022/07/30 06:49:31;;;;;;;10.80;9.88;;;21.70;90.30;;;;;;5043127;28;20017;-64
2022/07/30 06:51:57;;;;;;;11.15;7.68;;;21.80;90.30;;;;;;5053856;28;20094;-69
2022/07/30 06:54:23;;;;;;;11.63;8.57;;;21.80;90.10;;;;;;5049078;28;20026;-77
2022/07/30 06:56:48;;;;;;;8.68;7.88;;;22.00;88.30;;;;;;5035003;28;20064;-77
2022/07/30 06:59:14;;;;;;;11.68;10.77;;;22.10;87.80;;;;;;5067832;28;20035;-70
2022/07/30 07:01:39;;;;;;;10.68;9.07;;;22.20;87.50;;;;;;5056224;28;20042;-68
2022/07/30 07:04:05;;;;;;;9.02;7.97;;;22.20;87.70;;;;;;5059111;28;20018;-78
2022/07/30 07:06:31;;;;;;;11.23;9.10;;;22.30;88.00;;;;;;5032954;28;20029;-69
2022/07/30 07:08:57;;;;;;;9.95;9.02;;;22.10;87.40;;;;;;5033241;28;20026;-67
2022/07/30 07:11:23;;;;;;;10.30;5.55;;;22.20;87.10;;;;;;5034023;28;20029;-71
2022/07/30 07:13:48;;;;;;;7.13;6.13;;;22.30;86.60;;;;;;5049634;28;20029;-67
2022/07/30 07:16:14;;;;;;;7.57;7.00;;;22.40;87.00;;;;;;5055166;28;20029;-67
2022/07/30 07:18:39;;;;;;;7.93;6.45;;;22.50;85.90;;;;;;5042340;28;20024;-68
2022/07/30 07:21:06;;;;;;;26.38;8.68;;;22.50;86.10;;;;;;5041251;28;20021;-66
2022/07/30 07:23:32;;;;;;;12.85;7.50;;;22.60;87.50;;;;;;5046530;28;20029;-65
2022/07/30 07:25:58;;;;;;;8.90;7.25;;;22.60;87.50;;;;;;5044858;28;20040;-69
2022/07/30 07:28:24;;;;;;;10.20;9.25;;;22.60;87.20;;;;;;5032870;28;20025;-65
2022/07/30 07:30:49;;;;;;;7.55;7.00;;;22.70;86.90;;;;;;5058937;28;20045;-66
2022/07/30 07:33:15;;;;;;;7.93;7.25;;;22.70;86.10;;;;;;5044981;28;20026;-68
2022/07/30 07:35:41;;;;;;;7.07;6.38;;;22.90;85.10;;;;;;5046034;28;20030;-69
2022/07/30 07:38:06;;;;;;;8.40;7.70;;;22.90;84.70;;;;;;5048873;28;20066;-65
2022/07/30 07:40:32;;;;;;;9.45;8.70;;;23.00;84.70;;;;;;5035934;28;20025;-66
2022/07/30 07:42:57;;;;;;;8.65;7.18;;;23.00;84.60;;;;;;5046637;28;20474;-66
2022/07/30 07:45:23;;;;;;;8.23;7.38;;;23.10;83.50;;;;;;5038888;28;20056;-69
2022/07/30 07:47:49;;;;;;;6.10;5.53;;;23.10;83.90;;;;;;5038659;28;20053;-66
2022/07/30 07:50:16;;;;;;;7.95;7.15;;;23.10;84.20;;;;;;5041036;28;20026;-69
2022/07/30 07:52:42;;;;;;;7.82;7.13;;;23.20;83.10;;;;;;5040811;28;20425;-69
2022/07/30 07:55:08;;;;;;;6.47;5.43;;;23.40;80.30;;;;;;5035301;28;20398;-68
2022/07/30 07:57:41;;;;;;;6.93;6.28;;;23.40;81.80;;;;;;5034916;28;20029;-66
2022/07/30 08:00:09;;;;;;;6.63;6.13;;;23.40;81.40;;;;;;5036586;28;20682;-66
2022/07/30 08:02:35;;;;;;;7.47;6.20;;;23.50;80.70;;;;;;5036191;28;20036;-67
2022/07/30 08:05:01;;;;;;;10.77;9.77;;;23.50;80.30;;;;;;5042044;28;20510;-69
2022/07/30 08:07:29;;;;;;;9.50;8.65;;;23.70;78.60;;;;;;5035344;28;20071;-69
2022/07/30 08:09:54;;;;;;;9.52;8.55;;;23.70;79.00;;;;;;5040353;28;20460;-69
2022/07/30 08:12:20;;;;;;;10.25;9.55;;;23.80;79.10;;;;;;5051745;28;20033;-70
2022/07/30 08:14:45;;;;;;;8.20;7.55;;;23.70;79.50;;;;;;5050784;28;21618;-68
2022/07/30 08:17:11;;;;;;;10.98;10.32;;;23.80;77.80;;;;;;5041519;28;20475;-72
2022/07/30 08:19:37;;;;;;;9.63;8.63;;;23.80;77.60;;;;;;5048642;28;20030;-70
2022/07/30 08:22:02;;;;;;;9.13;7.20;;;23.80;79.00;;;;;;5052926;28;20031;-70
2022/07/30 08:24:28;;;;;;;10.38;9.68;;;23.80;79.30;;;;;;5049347;28;20032;-68
2022/07/30 08:26:53;;;;;;;9.32;8.52;;;23.80;79.40;;;;;;5047118;28;20463;-70
2022/07/30 08:29:19;;;;;;;10.95;9.18;;;23.90;79.20;;;;;;5044012;28;20104;-71
2022/07/30 08:31:45;;;;;;;10.15;9.48;;;24.10;77.20;;;;;;5040569;28;20545;-67
2022/07/30 08:34:12;;;;;;;11.98;11.00;;;24.10;75.50;;;;;;5041948;28;20044;-66
2022/07/30 08:36:37;;;;;;;11.80;10.85;;;24.20;74.20;;;;;;5051357;28;20047;-67
2022/07/30 08:39:03;;;;;;;11.88;11.18;;;24.40;71.90;;;;;;5045164;28;20397;-67
2022/07/30 08:41:29;;;;;;;10.55;9.82;;;24.50;71.20;;;;;;5041975;28;20033;-67
2022/07/30 08:43:58;;;;;;;11.70;10.57;;;24.50;71.80;;;;;;5045314;28;20052;-67
2022/07/30 08:46:26;;;;;;;10.90;9.85;;;24.40;74.20;;;;;;5043394;28;20024;-66
2022/07/30 08:48:53;;;;;;;10.98;10.05;;;24.30;75.80;;;;;;5050829;28;20037;-67
2022/07/30 08:51:19;;;;;;;11.77;8.20;;;24.30;74.20;;;;;;5042570;28;20045;-68
2022/07/30 08:53:45;;;;;;;12.27;9.70;;;24.30;75.50;;;;;;5049145;28;20493;-67
2022/07/30 08:56:11;;;;;;;9.48;8.55;;;24.30;76.10;;;;;;5053815;28;20525;-67
2022/07/30 08:58:36;;;;;;;9.52;8.80;;;24.30;76.30;;;;;;5041746;28;20096;-67
2022/07/30 09:01:04;;;;;;;10.00;9.32;;;24.30;76.60;;;;;;5042014;28;20068;-67
2022/07/30 09:03:30;;;;;;;10.55;9.85;;;24.30;77.60;;;;;;5056708;28;20419;-67
2022/07/30 09:05:56;;;;;;;10.93;10.10;;;24.30;78.20;;;;;;5055509;28;20561;-67
2022/07/30 09:08:21;;;;;;;12.38;11.20;;;24.30;77.70;;;;;;5054293;28;20054;-67
2022/07/30 09:10:47;;;;;;;11.63;10.70;;;24.40;79.80;;;;;;5043078;28;20086;-67
2022/07/30 09:13:45;;;;;;;11.60;10.80;;;24.50;73.20;;;;;;5052571;28;20463;-66
2022/07/30 09:16:20;;;;;;;11.35;10.63;;;24.70;68.90;;;;;;5041012;28;20136;-67
2022/07/30 09:18:46;;;;;;;14.13;12.85;;;24.70;77.90;;;;;;5038142;28;20137;-71
2022/07/30 09:21:24;;;;;;;14.70;12.70;;;24.60;82.60;;;;;;5045863;28;20427;-68
2022/07/30 09:23:58;;;;;;;13.68;10.98;;;24.70;88.60;;;;;;5055553;28;20501;-68
2022/07/30 09:26:24;;;;;;;10.50;9.60;;;24.70;85.80;;;;;;5058320;28;20031;-66
2022/07/30 09:28:50;;;;;;;13.07;11.95;;;24.70;83.40;;;;;;5057264;28;20032;-68
2022/07/30 09:31:18;;;;;;;15.90;14.45;;;24.70;84.10;;;;;;5055588;28;20040;-64
2022/07/30 09:33:45;;;;;;;14.32;13.02;;;24.70;84.40;;;;;;5045521;28;20079;-64
2022/07/30 09:36:14;;;;;;;15.98;11.73;;;24.60;87.30;;;;;;5066001;28;20029;-61
2022/07/30 09:38:43;;;;;;;13.95;12.88;;;24.70;86.40;;;;;;5043318;28;20017;-64
2022/07/30 09:41:10;;;;;;;12.20;9.95;;;24.70;85.60;;;;;;5037307;28;20026;-64
2022/07/30 09:43:47;;;;;;;10.43;9.40;;;24.70;84.80;;;;;;5042579;28;20021;-65
2022/07/30 09:46:14;;;;;;;15.05;13.65;;;24.70;83.70;;;;;;5044976;28;20032;-64
2022/07/30 09:48:40;;;;;;;11.93;11.07;;;24.80;82.70;;;;;;5049000;28;20024;-64
2022/07/30 09:51:06;;;;;;;13.40;12.15;;;24.70;82.70;;;;;;5038952;28;20037;-64
2022/07/30 09:53:33;;;;;;;12.25;10.60;;;24.70;82.60;;;;;;5033123;28;20379;-64
2022/07/30 09:55:59;;;;;;;11.07;10.18;;;24.70;81.40;;;;;;5042739;28;20028;-64
2022/07/30 09:58:38;;;;;;;12.38;11.18;;;24.70;81.50;;;;;;5047616;28;20033;-64
2022/07/30 10:01:04;;;;;;;11.25;10.38;;;24.60;81.60;;;;;;5037639;28;20045;-64
2022/07/30 10:03:30;;;;;;;13.15;12.15;;;24.70;78.60;;;;;;5042640;28;20025;-63
2022/07/30 10:05:58;;;;;;;12.90;12.10;;;24.80;79.30;;;;;;5039038;28;20541;-63
2022/07/30 10:08:43;;;;;;;11.25;10.05;;;24.90;73.50;;;;;;5033822;28;20052;-64
2022/07/30 10:11:15;;;;;;;13.00;9.68;;;24.90;75.20;;;;;;5039773;28;20036;-64
2022/07/30 10:13:41;;;;;;;13.50;10.32;;;24.90;78.20;;;;;;5051712;28;20106;-63
2022/07/30 10:16:07;;;;;;;11.15;10.20;;;24.90;76.70;;;;;;5041667;28;20028;-64
2022/07/30 10:18:34;;;;;;;12.55;11.77;;;24.90;77.60;;;;;;5039339;28;20049;-63
2022/07/30 10:21:02;;;;;;;10.38;9.50;;;24.90;77.30;;;;;;5046501;28;20024;-65
2022/07/30 10:23:28;;;;;;;11.43;10.63;;;24.90;76.70;;;;;;5044896;28;20387;-64
2022/07/30 10:26:01;;;;;;;11.90;11.07;;;25.10;75.40;;;;;;5032281;28;20033;-64
2022/07/30 10:28:28;;;;;;;10.55;9.75;;;25.00;76.00;;;;;;5037389;28;20029;-64
2022/07/30 10:30:56;;;;;;;9.65;9.05;;;25.00;76.90;;;;;;5034655;28;20070;-69
2022/07/30 10:33:24;;;;;;;12.90;12.13;;;25.00;76.50;;;;;;5048281;28;20431;-65
2022/07/30 10:35:50;;;;;;;12.02;11.15;;;25.10;74.80;;;;;;5034533;28;20033;-64
2022/07/30 10:38:19;;;;;;;13.25;12.27;;;25.10;75.00;;;;;;5056637;28;20025;-64
2022/07/30 10:41:02;;;;;;;12.48;11.63;;;25.10;75.10;;;;;;5044595;28;20426;-63
2022/07/30 10:43:46;;;;;;;12.63;11.63;;;25.10;74.60;;;;;;5047486;28;20065;-64
2022/07/30 10:46:25;;;;;;;9.40;8.68;;;25.20;74.00;;;;;;5065682;28;20029;-64
2022/07/30 10:48:51;;;;;;;12.45;11.52;;;25.10;75.70;;;;;;5044904;28;20032;-63
2022/07/30 10:51:16;;;;;;;11.13;10.10;;;25.10;75.40;;;;;;5037487;28;20033;-64
2022/07/30 10:53:45;;;;;;;10.13;9.35;;;25.20;75.30;;;;;;5048188;28;20487;-64
2022/07/30 10:56:24;;;;;;;12.30;11.40;;;25.10;75.40;;;;;;5036802;28;20026;-64
2022/07/30 10:58:56;;;;;;;10.48;9.68;;;25.10;75.40;;;;;;5036915;28;20029;-64
2022/07/30 11:01:22;;;;;;;10.95;10.20;;;25.10;75.10;;;;;;5056880;28;20036;-63
2022/07/30 11:04:16;;;;;;;12.90;12.10;;;25.20;75.30;;;;;;5044322;28;20037;-63
2022/07/30 11:06:42;;;;;;;11.23;10.27;;;25.10;75.20;;;;;;5043262;28;20126;-65
2022/07/30 11:09:39;;;;;;;10.75;10.10;;;25.10;75.10;;;;;;5043806;28;20058;-64
2022/07/30 11:12:06;;;;;;;13.48;12.68;;;25.10;75.00;;;;;;5033051;28;20044;-65
2022/07/30 11:15:02;;;;;;;10.75;10.02;;;25.20;74.10;;;;;;5053069;28;20060;-65
2022/07/30 11:17:57;;;;;;;12.43;11.52;;;25.20;75.10;;;;;;5028629;28;20041;-69
2022/07/30 11:20:23;;;;;;;12.30;11.48;;;25.20;75.20;;;;;;5052485;28;20025;-68
2022/07/30 11:22:48;;;;;;;13.77;12.75;;;25.30;75.30;;;;;;5034183;28;20432;-66
2022/07/30 11:25:26;;;;;;;16.73;15.48;;;25.30;75.80;;;;;;5038787;28;20025;-67
2022/07/30 11:27:52;;;;;;;14.98;13.70;;;25.30;75.70;;;;;;5046845;28;20458;-69
2022/07/30 11:30:21;;;;;;;15.95;14.73;;;25.30;76.00;;;;;;5034777;28;20046;-68
2022/07/30 11:32:48;;;;;;;14.82;13.85;;;25.20;76.10;;;;;;5048219;28;20510;-66
2022/07/30 11:35:24;;;;;;;14.25;13.15;;;25.30;75.40;;;;;;5040952;28;20537;-64
2022/07/30 11:37:55;;;;;;;15.68;14.50;;;25.30;75.10;;;;;;5053130;28;20033;-65
2022/07/30 11:40:22;;;;;;;16.30;14.90;;;25.30;75.40;;;;;;5036659;28;20037;-64
2022/07/30 11:42:48;;;;;;;15.23;14.02;;;25.30;75.00;;;;;;5043508;28;20124;-64
2022/07/30 11:45:21;;;;;;;17.02;15.40;;;25.30;74.70;;;;;;5050584;28;20538;-71
2022/07/30 11:47:50;;;;;;;14.70;13.38;;;25.50;74.30;;;;;;5059320;28;20025;-68
2022/07/30 11:50:48;;;;;;;14.70;13.65;;;25.50;72.60;;;;;;5047640;28;20398;-71
2022/07/30 11:53:22;;;;;;;14.05;13.05;;;25.50;72.80;;;;;;5036457;28;20076;-71
2022/07/30 11:55:52;;;;;;;12.98;11.70;;;25.60;71.30;;;;;;5041093;28;20025;-69
2022/07/30 11:58:36;;;;;;;15.95;14.85;;;25.60;72.10;;;;;;5041033;28;20039;-67
2022/07/30 12:01:14;;;;;;;15.55;14.45;;;25.60;73.40;;;;;;5041856;28;20038;-70
2022/07/30 12:03:42;;;;;;;15.48;14.05;;;25.60;73.50;;;;;;5041552;28;20021;-66
2022/07/30 12:06:20;;;;;;;15.40;14.15;;;25.40;75.10;;;;;;5040686;28;20477;-71
2022/07/30 12:08:48;;;;;;;12.77;11.77;;;25.50;74.40;;;;;;5042091;28;20043;-69
2022/07/30 12:11:14;;;;;;;16.10;14.90;;;25.40;74.40;;;;;;5046234;28;20431;-66
2022/07/30 12:13:42;;;;;;;13.77;12.70;;;25.40;74.30;;;;;;5046226;28;20079;-66
2022/07/30 12:16:10;;;;;;;14.82;13.88;;;25.50;74.20;;;;;;5043064;28;20032;-66
2022/07/30 12:18:36;;;;;;;14.93;13.55;;;25.50;74.30;;;;;;5048328;28;20041;-72
2022/07/30 12:21:10;;;;;;;16.27;15.05;;;25.50;73.90;;;;;;5048546;28;20032;-72
2022/07/30 12:23:36;;;;;;;13.82;12.73;;;25.40;74.30;;;;;;5049628;28;20021;-71
2022/07/30 12:26:02;;;;;;;13.93;12.93;;;25.40;74.10;;;;;;5056573;28;20033;-72
2022/07/30 12:28:30;;;;;;;13.68;12.55;;;25.40;74.10;;;;;;5055988;28;20024;-71
2022/07/30 12:30:57;;;;;;;13.70;12.80;;;25.50;73.70;;;;;;5070864;28;20039;-71
2022/07/30 12:33:23;;;;;;;12.60;11.60;;;25.50;73.70;;;;;;5048260;28;20066;-71
2022/07/30 12:35:52;;;;;;;15.93;14.82;;;25.50;73.70;;;;;;5045461;28;20458;-71
2022/07/30 12:38:19;;;;;;;15.10;14.07;;;25.50;73.80;;;;;;5050538;28;20505;-70